sensor_id;sensor_type;location;lat;lon;timestamp;P1;durP1;ratioP1;P2;durP2;ratioP2
46507;SDS011;32223;53.654;10.014;2023-06-22T00:02:24;3.72;;;2.75;;
46507;SDS011;32223;53.654;10.014;2023-06-22T00:04:50;4.53;;;2.70;;
46507;SDS011;32223;53.654;10.014;2023-06-22T00:07:16;5.60;;;3.00;;
46507;SDS011;32223;53.654;10.014;2023-06-22T00:09:41;4.22;;;2.72;;
46507;SDS011;32223;53.654;10.014;2023-06-22T00:12:07;5.47;;;3.20;;
46507;SDS011;32223;53.654;10.014;2023-06-22T00:14:33;5.10;;;3.30;;
46507;SDS011;32223;53.654;10.014;2023-06-22T00:16:58;4.55;;;2.92;;
46507;SDS011;32223;53.654;10.014;2023-06-22T00:19:24;4.68;;;2.92;;
46507;SDS011;32223;53.654;10.014;2023-06-22T00:21:50;5.18;;;2.80;;
46507;SDS011;32223;53.654;10.014;2023-06-22T00:24:18;4.38;;;2.90;;
46507;SDS011;32223;53.654;10.014;2023-06-22T00:26:45;5.13;;;3.40;;
46507;SDS011;32223;53.654;10.014;2023-06-22T00:29:10;6.82;;;4.07;;
46507;SDS011;32223;53.654;10.014;2023-06-22T00:31:36;6.30;;;3.42;;
46507;SDS011;32223;53.654;10.014;2023-06-22T00:34:02;5.75;;;2.92;;
46507;SDS011;32223;53.654;10.014;2023-06-22T00:36:27;4.57;;;3.00;;
46507;SDS011;32223;53.654;10.014;2023-06-22T00:38:53;5.07;;;2.90;;
46507;SDS011;32223;53.654;10.014;2023-06-22T00:41:18;5.72;;;3.60;;
46507;SDS011;32223;53.654;10.014;2023-06-22T00:43:44;4.88;;;3.35;;
46507;SDS011;32223;53.654;10.014;2023-06-22T00:46:10;5.53;;;3.47;;
46507;SDS011;32223;53.654;10.014;2023-06-22T00:48:36;4.45;;;3.00;;
46507;SDS011;32223;53.654;10.014;2023-06-22T00:51:02;4.80;;;3.17;;
46507;SDS011;32223;53.654;10.014;2023-06-22T00:53:28;5.00;;;3.35;;
46507;SDS011;32223;53.654;10.014;2023-06-22T00:55:54;4.55;;;3.30;;
46507;SDS011;32223;53.654;10.014;2023-06-22T00:58:21;4.63;;;3.58;;
46507;SDS011;32223;53.654;10.014;2023-06-22T01:00:47;5.30;;;3.10;;
46507;SDS011;32223;53.654;10.014;2023-06-22T01:03:13;3.85;;;3.05;;
46507;SDS011;32223;53.654;10.014;2023-06-22T01:05:39;4.93;;;3.05;;
46507;SDS011;32223;53.654;10.014;2023-06-22T01:10:50;5.75;;;2.90;;
46507;SDS011;32223;53.654;10.014;2023-06-22T01:16:00;5.18;;;3.25;;
46507;SDS011;32223;53.654;10.014;2023-06-22T01:18:28;6.75;;;3.17;;
46507;SDS011;32223;53.654;10.014;2023-06-22T01:20:56;4.90;;;3.20;;
46507;SDS011;32223;53.654;10.014;2023-06-22T01:23:26;6.20;;;3.50;;
46507;SDS011;32223;53.654;10.014;2023-06-22T01:26:02;5.90;;;3.38;;
46507;SDS011;32223;53.654;10.014;2023-06-22T01:31:12;4.13;;;3.17;;
46507;SDS011;32223;53.654;10.014;2023-06-22T01:33:41;5.32;;;3.75;;
46507;SDS011;32223;53.654;10.014;2023-06-22T01:36:09;4.70;;;3.38;;
46507;SDS011;32223;53.654;10.014;2023-06-22T01:38:35;7.07;;;3.85;;
46507;SDS011;32223;53.654;10.014;2023-06-22T01:41:03;6.85;;;3.50;;
46507;SDS011;32223;53.654;10.014;2023-06-22T01:43:29;5.45;;;3.90;;
46507;SDS011;32223;53.654;10.014;2023-06-22T01:45:55;6.20;;;3.47;;
46507;SDS011;32223;53.654;10.014;2023-06-22T01:48:23;4.70;;;3.38;;
46507;SDS011;32223;53.654;10.014;2023-06-22T01:50:50;5.07;;;3.10;;
46507;SDS011;32223;53.654;10.014;2023-06-22T01:53:17;5.68;;;3.47;;
46507;SDS011;32223;53.654;10.014;2023-06-22T01:55:42;4.97;;;3.75;;
46507;SDS011;32223;53.654;10.014;2023-06-22T01:58:08;6.25;;;4.35;;
46507;SDS011;32223;53.654;10.014;2023-06-22T02:00:36;6.90;;;3.95;;
46507;SDS011;32223;53.654;10.014;2023-06-22T02:05:38;6.63;;;3.83;;
46507;SDS011;32223;53.654;10.014;2023-06-22T02:08:16;5.20;;;3.70;;
46507;SDS011;32223;53.654;10.014;2023-06-22T02:10:45;6.65;;;4.40;;
46507;SDS011;32223;53.654;10.014;2023-06-22T02:13:13;6.45;;;3.85;;
46507;SDS011;32223;53.654;10.014;2023-06-22T02:15:41;6.05;;;4.30;;
46507;SDS011;32223;53.654;10.014;2023-06-22T02:18:07;5.45;;;3.75;;
46507;SDS011;32223;53.654;10.014;2023-06-22T02:20:32;6.20;;;3.97;;
46507;SDS011;32223;53.654;10.014;2023-06-22T02:23:02;5.38;;;3.90;;
46507;SDS011;32223;53.654;10.014;2023-06-22T02:25:27;5.95;;;3.83;;
46507;SDS011;32223;53.654;10.014;2023-06-22T02:27:53;5.93;;;3.90;;
46507;SDS011;32223;53.654;10.014;2023-06-22T02:30:19;5.03;;;3.80;;
46507;SDS011;32223;53.654;10.014;2023-06-22T02:32:44;8.32;;;3.85;;
46507;SDS011;32223;53.654;10.014;2023-06-22T02:35:10;5.32;;;3.95;;
46507;SDS011;32223;53.654;10.014;2023-06-22T02:37:36;5.68;;;3.85;;
46507;SDS011;32223;53.654;10.014;2023-06-22T02:40:07;5.57;;;4.22;;
46507;SDS011;32223;53.654;10.014;2023-06-22T02:42:36;6.05;;;3.78;;
46507;SDS011;32223;53.654;10.014;2023-06-22T02:45:04;5.70;;;4.38;;
46507;SDS011;32223;53.654;10.014;2023-06-22T02:47:30;8.40;;;4.53;;
46507;SDS011;32223;53.654;10.014;2023-06-22T02:49:56;6.00;;;3.75;;
46507;SDS011;32223;53.654;10.014;2023-06-22T02:52:22;6.72;;;4.43;;
46507;SDS011;32223;53.654;10.014;2023-06-22T02:54:47;5.40;;;4.13;;
46507;SDS011;32223;53.654;10.014;2023-06-22T02:57:13;6.50;;;4.90;;
46507;SDS011;32223;53.654;10.014;2023-06-22T02:59:42;7.18;;;5.05;;
46507;SDS011;32223;53.654;10.014;2023-06-22T03:02:08;9.07;;;4.95;;
46507;SDS011;32223;53.654;10.014;2023-06-22T03:04:34;8.25;;;4.90;;
46507;SDS011;32223;53.654;10.014;2023-06-22T03:07:00;6.43;;;4.60;;
46507;SDS011;32223;53.654;10.014;2023-06-22T03:09:26;6.72;;;5.00;;
46507;SDS011;32223;53.654;10.014;2023-06-22T03:11:53;7.13;;;4.63;;
46507;SDS011;32223;53.654;10.014;2023-06-22T03:14:19;7.40;;;4.93;;
46507;SDS011;32223;53.654;10.014;2023-06-22T03:16:44;6.55;;;5.10;;
46507;SDS011;32223;53.654;10.014;2023-06-22T03:19:10;6.63;;;4.45;;
46507;SDS011;32223;53.654;10.014;2023-06-22T03:21:36;6.85;;;4.53;;
46507;SDS011;32223;53.654;10.014;2023-06-22T03:24:03;9.43;;;4.88;;
46507;SDS011;32223;53.654;10.014;2023-06-22T03:26:30;7.57;;;4.88;;
46507;SDS011;32223;53.654;10.014;2023-06-22T03:28:55;10.63;;;5.63;;
46507;SDS011;32223;53.654;10.014;2023-06-22T03:31:21;7.88;;;5.00;;
46507;SDS011;32223;53.654;10.014;2023-06-22T03:33:48;6.28;;;4.85;;
46507;SDS011;32223;53.654;10.014;2023-06-22T03:36:15;6.82;;;4.10;;
46507;SDS011;32223;53.654;10.014;2023-06-22T03:38:44;6.10;;;4.40;;
46507;SDS011;32223;53.654;10.014;2023-06-22T03:41:13;6.20;;;4.10;;
46507;SDS011;32223;53.654;10.014;2023-06-22T03:43:38;7.28;;;4.97;;
46507;SDS011;32223;53.654;10.014;2023-06-22T03:46:04;10.63;;;6.90;;
46507;SDS011;32223;53.654;10.014;2023-06-22T03:48:30;8.25;;;5.32;;
46507;SDS011;32223;53.654;10.014;2023-06-22T03:50:56;9.45;;;4.50;;
46507;SDS011;32223;53.654;10.014;2023-06-22T03:53:24;7.07;;;4.85;;
46507;SDS011;32223;53.654;10.014;2023-06-22T03:55:50;6.95;;;5.30;;
46507;SDS011;32223;53.654;10.014;2023-06-22T03:58:17;7.40;;;4.97;;
46507;SDS011;32223;53.654;10.014;2023-06-22T04:00:48;7.22;;;5.00;;
46507;SDS011;32223;53.654;10.014;2023-06-22T04:03:14;6.90;;;4.82;;
46507;SDS011;32223;53.654;10.014;2023-06-22T04:05:40;12.30;;;5.65;;
46507;SDS011;32223;53.654;10.014;2023-06-22T04:08:06;8.10;;;6.05;;
46507;SDS011;32223;53.654;10.014;2023-06-22T04:10:32;9.75;;;5.53;;
46507;SDS011;32223;53.654;10.014;2023-06-22T04:12:58;8.48;;;4.82;;
46507;SDS011;32223;53.654;10.014;2023-06-22T04:15:24;7.03;;;5.40;;
46507;SDS011;32223;53.654;10.014;2023-06-22T04:17:50;6.93;;;5.38;;
46507;SDS011;32223;53.654;10.014;2023-06-22T04:20:15;8.27;;;4.95;;
46507;SDS011;32223;53.654;10.014;2023-06-22T04:22:41;7.82;;;4.88;;
46507;SDS011;32223;53.654;10.014;2023-06-22T04:25:06;7.68;;;4.75;;
46507;SDS011;32223;53.654;10.014;2023-06-22T04:27:32;10.15;;;5.30;;
46507;SDS011;32223;53.654;10.014;2023-06-22T04:30:02;6.78;;;5.05;;
46507;SDS011;32223;53.654;10.014;2023-06-22T04:32:28;8.43;;;5.30;;
46507;SDS011;32223;53.654;10.014;2023-06-22T04:34:54;7.05;;;5.32;;
46507;SDS011;32223;53.654;10.014;2023-06-22T04:37:20;9.27;;;5.82;;
46507;SDS011;32223;53.654;10.014;2023-06-22T04:39:48;9.32;;;5.38;;
46507;SDS011;32223;53.654;10.014;2023-06-22T04:42:14;9.70;;;5.93;;
46507;SDS011;32223;53.654;10.014;2023-06-22T04:44:40;8.07;;;5.60;;
46507;SDS011;32223;53.654;10.014;2023-06-22T04:47:06;9.27;;;5.13;;
46507;SDS011;32223;53.654;10.014;2023-06-22T04:49:33;9.55;;;5.60;;
46507;SDS011;32223;53.654;10.014;2023-06-22T04:52:05;10.15;;;6.28;;
46507;SDS011;32223;53.654;10.014;2023-06-22T04:54:32;7.30;;;4.60;;
46507;SDS011;32223;53.654;10.014;2023-06-22T04:57:01;7.82;;;5.07;;
46507;SDS011;32223;53.654;10.014;2023-06-22T04:59:29;8.48;;;5.53;;
46507;SDS011;32223;53.654;10.014;2023-06-22T05:01:56;9.23;;;5.70;;
46507;SDS011;32223;53.654;10.014;2023-06-22T05:04:23;7.15;;;5.13;;
46507;SDS011;32223;53.654;10.014;2023-06-22T05:06:49;6.63;;;4.55;;
46507;SDS011;32223;53.654;10.014;2023-06-22T05:09:18;8.32;;;5.13;;
46507;SDS011;32223;53.654;10.014;2023-06-22T05:11:44;8.43;;;5.00;;
46507;SDS011;32223;53.654;10.014;2023-06-22T05:14:10;7.30;;;4.50;;
46507;SDS011;32223;53.654;10.014;2023-06-22T05:16:36;6.88;;;4.43;;
46507;SDS011;32223;53.654;10.014;2023-06-22T05:19:02;6.68;;;4.53;;
46507;SDS011;32223;53.654;10.014;2023-06-22T05:21:28;8.88;;;4.78;;
46507;SDS011;32223;53.654;10.014;2023-06-22T05:23:55;9.68;;;4.70;;
46507;SDS011;32223;53.654;10.014;2023-06-22T05:26:24;9.73;;;4.38;;
46507;SDS011;32223;53.654;10.014;2023-06-22T05:28:51;6.13;;;4.38;;
46507;SDS011;32223;53.654;10.014;2023-06-22T05:31:17;4.85;;;3.72;;
46507;SDS011;32223;53.654;10.014;2023-06-22T05:33:44;7.72;;;4.13;;
46507;SDS011;32223;53.654;10.014;2023-06-22T05:36:11;6.30;;;4.00;;
46507;SDS011;32223;53.654;10.014;2023-06-22T05:38:37;7.00;;;3.85;;
46507;SDS011;32223;53.654;10.014;2023-06-22T05:41:04;5.32;;;3.42;;
46507;SDS011;32223;53.654;10.014;2023-06-22T05:43:30;4.97;;;3.45;;
46507;SDS011;32223;53.654;10.014;2023-06-22T05:45:56;6.03;;;3.10;;
46507;SDS011;32223;53.654;10.014;2023-06-22T05:48:21;7.18;;;3.20;;
46507;SDS011;32223;53.654;10.014;2023-06-22T05:50:47;4.40;;;2.80;;
46507;SDS011;32223;53.654;10.014;2023-06-22T05:53:13;3.88;;;2.80;;
46507;SDS011;32223;53.654;10.014;2023-06-22T05:55:38;5.65;;;3.15;;
46507;SDS011;32223;53.654;10.014;2023-06-22T05:58:04;5.13;;;2.72;;
46507;SDS011;32223;53.654;10.014;2023-06-22T06:00:30;6.35;;;2.67;;
46507;SDS011;32223;53.654;10.014;2023-06-22T06:02:56;2.90;;;2.17;;
46507;SDS011;32223;53.654;10.014;2023-06-22T06:05:21;4.18;;;2.35;;
46507;SDS011;32223;53.654;10.014;2023-06-22T06:07:49;3.85;;;2.10;;
46507;SDS011;32223;53.654;10.014;2023-06-22T06:10:14;5.60;;;2.20;;
46507;SDS011;32223;53.654;10.014;2023-06-22T06:12:40;3.38;;;1.90;;
46507;SDS011;32223;53.654;10.014;2023-06-22T06:15:05;3.47;;;2.50;;
46507;SDS011;32223;53.654;10.014;2023-06-22T06:17:31;3.17;;;2.03;;
46507;SDS011;32223;53.654;10.014;2023-06-22T06:19:58;3.97;;;2.45;;
46507;SDS011;32223;53.654;10.014;2023-06-22T06:22:24;5.03;;;2.35;;
46507;SDS011;32223;53.654;10.014;2023-06-22T06:24:50;3.28;;;2.10;;
46507;SDS011;32223;53.654;10.014;2023-06-22T06:27:16;3.50;;;2.10;;
46507;SDS011;32223;53.654;10.014;2023-06-22T06:29:44;5.50;;;2.15;;
46507;SDS011;32223;53.654;10.014;2023-06-22T06:32:13;3.28;;;1.88;;
46507;SDS011;32223;53.654;10.014;2023-06-22T06:34:39;3.30;;;1.90;;
46507;SDS011;32223;53.654;10.014;2023-06-22T06:37:05;4.43;;;2.17;;
46507;SDS011;32223;53.654;10.014;2023-06-22T06:39:31;4.72;;;1.83;;
46507;SDS011;32223;53.654;10.014;2023-06-22T06:41:57;7.95;;;2.05;;
46507;SDS011;32223;53.654;10.014;2023-06-22T06:44:22;7.18;;;2.50;;
46507;SDS011;32223;53.654;10.014;2023-06-22T06:46:48;5.60;;;2.40;;
46507;SDS011;32223;53.654;10.014;2023-06-22T06:49:13;4.95;;;1.92;;
46507;SDS011;32223;53.654;10.014;2023-06-22T06:51:39;6.57;;;2.80;;
46507;SDS011;32223;53.654;10.014;2023-06-22T06:54:04;5.00;;;2.22;;
46507;SDS011;32223;53.654;10.014;2023-06-22T06:56:30;5.00;;;2.20;;
46507;SDS011;32223;53.654;10.014;2023-06-22T06:58:57;3.35;;;1.88;;
46507;SDS011;32223;53.654;10.014;2023-06-22T07:01:23;5.90;;;2.42;;
46507;SDS011;32223;53.654;10.014;2023-06-22T07:03:49;5.55;;;2.03;;
46507;SDS011;32223;53.654;10.014;2023-06-22T07:06:14;3.20;;;2.03;;
46507;SDS011;32223;53.654;10.014;2023-06-22T07:08:41;4.18;;;2.47;;
46507;SDS011;32223;53.654;10.014;2023-06-22T07:11:07;3.85;;;2.38;;
46507;SDS011;32223;53.654;10.014;2023-06-22T07:13:33;4.55;;;2.15;;
46507;SDS011;32223;53.654;10.014;2023-06-22T07:15:59;3.92;;;2.83;;
46507;SDS011;32223;53.654;10.014;2023-06-22T07:18:25;3.72;;;1.80;;
46507;SDS011;32223;53.654;10.014;2023-06-22T07:20:51;3.40;;;1.88;;
46507;SDS011;32223;53.654;10.014;2023-06-22T07:23:17;4.75;;;1.90;;
46507;SDS011;32223;53.654;10.014;2023-06-22T07:25:42;3.13;;;2.20;;
46507;SDS011;32223;53.654;10.014;2023-06-22T07:28:09;3.90;;;1.85;;
46507;SDS011;32223;53.654;10.014;2023-06-22T07:30:34;3.47;;;1.90;;
46507;SDS011;32223;53.654;10.014;2023-06-22T07:33:00;4.00;;;2.15;;
46507;SDS011;32223;53.654;10.014;2023-06-22T07:35:28;2.42;;;1.80;;
46507;SDS011;32223;53.654;10.014;2023-06-22T07:37:54;5.43;;;2.00;;
46507;SDS011;32223;53.654;10.014;2023-06-22T07:40:19;2.90;;;1.83;;
46507;SDS011;32223;53.654;10.014;2023-06-22T07:42:45;4.15;;;2.28;;
46507;SDS011;32223;53.654;10.014;2023-06-22T07:45:13;4.72;;;2.20;;
46507;SDS011;32223;53.654;10.014;2023-06-22T07:47:38;4.38;;;2.30;;
46507;SDS011;32223;53.654;10.014;2023-06-22T07:50:04;4.43;;;2.30;;
46507;SDS011;32223;53.654;10.014;2023-06-22T07:52:31;3.97;;;2.15;;
46507;SDS011;32223;53.654;10.014;2023-06-22T07:54:56;4.78;;;2.08;;
46507;SDS011;32223;53.654;10.014;2023-06-22T07:57:22;3.88;;;2.10;;
46507;SDS011;32223;53.654;10.014;2023-06-22T07:59:48;4.57;;;2.67;;
46507;SDS011;32223;53.654;10.014;2023-06-22T08:02:13;4.50;;;2.28;;
46507;SDS011;32223;53.654;10.014;2023-06-22T08:04:39;5.50;;;3.65;;
46507;SDS011;32223;53.654;10.014;2023-06-22T08:07:06;2.80;;;2.20;;
46507;SDS011;32223;53.654;10.014;2023-06-22T08:09:32;2.95;;;2.30;;
46507;SDS011;32223;53.654;10.014;2023-06-22T08:11:58;3.15;;;2.25;;
46507;SDS011;32223;53.654;10.014;2023-06-22T08:14:27;4.53;;;2.38;;
46507;SDS011;32223;53.654;10.014;2023-06-22T08:16:54;4.93;;;2.20;;
46507;SDS011;32223;53.654;10.014;2023-06-22T08:19:20;3.38;;;2.25;;
46507;SDS011;32223;53.654;10.014;2023-06-22T08:21:45;4.57;;;2.67;;
46507;SDS011;32223;53.654;10.014;2023-06-22T08:24:11;3.22;;;2.17;;
46507;SDS011;32223;53.654;10.014;2023-06-22T08:26:37;3.75;;;2.35;;
46507;SDS011;32223;53.654;10.014;2023-06-22T08:29:05;3.88;;;2.70;;
46507;SDS011;32223;53.654;10.014;2023-06-22T08:31:31;4.53;;;2.17;;
46507;SDS011;32223;53.654;10.014;2023-06-22T08:33:58;2.88;;;1.85;;
46507;SDS011;32223;53.654;10.014;2023-06-22T08:36:24;6.95;;;2.63;;
46507;SDS011;32223;53.654;10.014;2023-06-22T08:38:50;4.25;;;2.05;;
46507;SDS011;32223;53.654;10.014;2023-06-22T08:41:16;3.78;;;2.08;;
46507;SDS011;32223;53.654;10.014;2023-06-22T08:43:42;3.58;;;2.10;;
46507;SDS011;32223;53.654;10.014;2023-06-22T08:46:09;3.30;;;2.03;;
46507;SDS011;32223;53.654;10.014;2023-06-22T08:48:35;4.82;;;1.75;;
46507;SDS011;32223;53.654;10.014;2023-06-22T08:51:01;4.32;;;2.22;;
46507;SDS011;32223;53.654;10.014;2023-06-22T08:53:27;3.38;;;2.03;;
46507;SDS011;32223;53.654;10.014;2023-06-22T08:55:53;2.67;;;1.65;;
46507;SDS011;32223;53.654;10.014;2023-06-22T08:58:19;2.90;;;1.70;;
46507;SDS011;32223;53.654;10.014;2023-06-22T09:00:46;3.05;;;1.80;;
46507;SDS011;32223;53.654;10.014;2023-06-22T09:03:12;4.82;;;1.88;;
46507;SDS011;32223;53.654;10.014;2023-06-22T09:05:37;3.88;;;1.92;;
46507;SDS011;32223;53.654;10.014;2023-06-22T09:08:03;3.10;;;1.73;;
46507;SDS011;32223;53.654;10.014;2023-06-22T09:10:29;4.05;;;1.75;;
46507;SDS011;32223;53.654;10.014;2023-06-22T09:12:54;3.35;;;2.15;;
46507;SDS011;32223;53.654;10.014;2023-06-22T09:15:20;4.30;;;2.10;;
46507;SDS011;32223;53.654;10.014;2023-06-22T09:17:46;4.95;;;2.15;;
46507;SDS011;32223;53.654;10.014;2023-06-22T09:20:11;4.93;;;2.63;;
46507;SDS011;32223;53.654;10.014;2023-06-22T09:22:37;4.53;;;2.38;;
46507;SDS011;32223;53.654;10.014;2023-06-22T09:25:04;4.25;;;2.05;;
46507;SDS011;32223;53.654;10.014;2023-06-22T09:27:30;3.30;;;2.10;;
46507;SDS011;32223;53.654;10.014;2023-06-22T09:29:55;3.28;;;1.95;;
46507;SDS011;32223;53.654;10.014;2023-06-22T09:32:23;2.17;;;1.55;;
46507;SDS011;32223;53.654;10.014;2023-06-22T09:34:49;4.03;;;2.13;;
46507;SDS011;32223;53.654;10.014;2023-06-22T09:37:15;3.55;;;1.95;;
46507;SDS011;32223;53.654;10.014;2023-06-22T09:39:41;3.30;;;2.10;;
46507;SDS011;32223;53.654;10.014;2023-06-22T09:42:06;2.92;;;1.95;;
46507;SDS011;32223;53.654;10.014;2023-06-22T09:44:32;4.00;;;1.80;;
46507;SDS011;32223;53.654;10.014;2023-06-22T09:46:58;4.25;;;2.50;;
46507;SDS011;32223;53.654;10.014;2023-06-22T09:49:24;3.65;;;2.28;;
46507;SDS011;32223;53.654;10.014;2023-06-22T09:51:49;4.70;;;2.25;;
46507;SDS011;32223;53.654;10.014;2023-06-22T09:54:15;2.90;;;2.08;;
46507;SDS011;32223;53.654;10.014;2023-06-22T09:56:41;4.68;;;2.55;;
46507;SDS011;32223;53.654;10.014;2023-06-22T09:59:07;3.40;;;2.15;;
46507;SDS011;32223;53.654;10.014;2023-06-22T10:01:32;4.22;;;2.30;;
46507;SDS011;32223;53.654;10.014;2023-06-22T10:03:58;4.85;;;2.17;;
46507;SDS011;32223;53.654;10.014;2023-06-22T10:06:24;5.47;;;2.22;;
46507;SDS011;32223;53.654;10.014;2023-06-22T10:08:50;4.72;;;1.85;;
46507;SDS011;32223;53.654;10.014;2023-06-22T10:11:16;3.50;;;2.10;;
46507;SDS011;32223;53.654;10.014;2023-06-22T10:13:42;2.95;;;1.90;;
46507;SDS011;32223;53.654;10.014;2023-06-22T10:16:08;6.82;;;1.65;;
46507;SDS011;32223;53.654;10.014;2023-06-22T10:18:33;5.25;;;1.73;;
46507;SDS011;32223;53.654;10.014;2023-06-22T10:20:59;4.72;;;2.10;;
46507;SDS011;32223;53.654;10.014;2023-06-22T10:23:25;2.95;;;1.98;;
46507;SDS011;32223;53.654;10.014;2023-06-22T10:25:50;3.65;;;2.28;;
46507;SDS011;32223;53.654;10.014;2023-06-22T10:28:16;5.20;;;2.28;;
46507;SDS011;32223;53.654;10.014;2023-06-22T10:30:42;3.58;;;2.70;;
46507;SDS011;32223;53.654;10.014;2023-06-22T10:33:08;3.85;;;2.00;;
46507;SDS011;32223;53.654;10.014;2023-06-22T10:35:34;4.03;;;2.08;;
46507;SDS011;32223;53.654;10.014;2023-06-22T10:38:02;4.45;;;2.20;;
46507;SDS011;32223;53.654;10.014;2023-06-22T10:40:28;3.67;;;2.10;;
46507;SDS011;32223;53.654;10.014;2023-06-22T10:42:54;4.10;;;1.95;;
46507;SDS011;32223;53.654;10.014;2023-06-22T10:45:19;2.00;;;1.70;;
46507;SDS011;32223;53.654;10.014;2023-06-22T10:47:45;5.85;;;2.08;;
46507;SDS011;32223;53.654;10.014;2023-06-22T10:50:11;2.50;;;2.13;;
46507;SDS011;32223;53.654;10.014;2023-06-22T10:52:37;5.10;;;2.25;;
46507;SDS011;32223;53.654;10.014;2023-06-22T10:55:03;2.83;;;2.03;;
46507;SDS011;32223;53.654;10.014;2023-06-22T10:57:29;3.60;;;2.45;;
46507;SDS011;32223;53.654;10.014;2023-06-22T10:59:54;2.72;;;1.95;;
46507;SDS011;32223;53.654;10.014;2023-06-22T11:02:20;3.00;;;2.50;;
46507;SDS011;32223;53.654;10.014;2023-06-22T11:04:45;4.50;;;2.30;;
46507;SDS011;32223;53.654;10.014;2023-06-22T11:07:12;4.97;;;2.50;;
46507;SDS011;32223;53.654;10.014;2023-06-22T11:09:38;3.28;;;2.30;;
46507;SDS011;32223;53.654;10.014;2023-06-22T11:12:04;4.35;;;2.35;;
46507;SDS011;32223;53.654;10.014;2023-06-22T11:14:31;6.32;;;2.30;;
46507;SDS011;32223;53.654;10.014;2023-06-22T11:16:58;4.40;;;2.20;;
46507;SDS011;32223;53.654;10.014;2023-06-22T11:19:24;3.05;;;2.03;;
46507;SDS011;32223;53.654;10.014;2023-06-22T11:21:49;2.95;;;1.80;;
46507;SDS011;32223;53.654;10.014;2023-06-22T11:24:16;4.60;;;2.13;;
46507;SDS011;32223;53.654;10.014;2023-06-22T11:26:42;3.45;;;2.40;;
46507;SDS011;32223;53.654;10.014;2023-06-22T11:29:08;5.90;;;3.25;;
46507;SDS011;32223;53.654;10.014;2023-06-22T11:31:34;3.92;;;2.03;;
46507;SDS011;32223;53.654;10.014;2023-06-22T11:34:00;4.30;;;2.80;;
46507;SDS011;32223;53.654;10.014;2023-06-22T11:36:26;3.25;;;2.25;;
46507;SDS011;32223;53.654;10.014;2023-06-22T11:38:52;3.65;;;2.50;;
46507;SDS011;32223;53.654;10.014;2023-06-22T11:41:17;3.90;;;2.47;;
46507;SDS011;32223;53.654;10.014;2023-06-22T11:43:43;3.47;;;2.00;;
46507;SDS011;32223;53.654;10.014;2023-06-22T11:46:09;3.85;;;2.70;;
46507;SDS011;32223;53.654;10.014;2023-06-22T11:48:35;2.97;;;2.42;;
46507;SDS011;32223;53.654;10.014;2023-06-22T11:51:02;3.75;;;2.42;;
46507;SDS011;32223;53.654;10.014;2023-06-22T11:53:28;6.53;;;2.63;;
46507;SDS011;32223;53.654;10.014;2023-06-22T11:55:54;4.85;;;2.75;;
46507;SDS011;32223;53.654;10.014;2023-06-22T11:58:20;4.18;;;2.40;;
46507;SDS011;32223;53.654;10.014;2023-06-22T12:00:46;5.53;;;2.70;;
46507;SDS011;32223;53.654;10.014;2023-06-22T12:03:12;4.28;;;2.47;;
46507;SDS011;32223;53.654;10.014;2023-06-22T12:05:39;4.43;;;3.00;;
46507;SDS011;32223;53.654;10.014;2023-06-22T12:08:05;3.70;;;2.28;;
46507;SDS011;32223;53.654;10.014;2023-06-22T12:10:31;3.80;;;2.80;;
46507;SDS011;32223;53.654;10.014;2023-06-22T12:12:57;3.75;;;2.30;;
46507;SDS011;32223;53.654;10.014;2023-06-22T12:15:24;4.07;;;2.80;;
46507;SDS011;32223;53.654;10.014;2023-06-22T12:17:50;5.53;;;2.40;;
46507;SDS011;32223;53.654;10.014;2023-06-22T12:20:16;4.25;;;2.55;;
46507;SDS011;32223;53.654;10.014;2023-06-22T12:22:41;3.22;;;2.42;;
46507;SDS011;32223;53.654;10.014;2023-06-22T12:25:10;4.55;;;2.50;;
46507;SDS011;32223;53.654;10.014;2023-06-22T12:27:36;6.90;;;3.10;;
46507;SDS011;32223;53.654;10.014;2023-06-22T12:30:02;4.28;;;2.78;;
46507;SDS011;32223;53.654;10.014;2023-06-22T12:32:29;4.40;;;3.08;;
46507;SDS011;32223;53.654;10.014;2023-06-22T12:34:55;4.38;;;3.25;;
46507;SDS011;32223;53.654;10.014;2023-06-22T12:37:21;6.38;;;2.90;;
46507;SDS011;32223;53.654;10.014;2023-06-22T12:39:46;4.30;;;3.00;;
46507;SDS011;32223;53.654;10.014;2023-06-22T12:42:12;4.05;;;3.08;;
46507;SDS011;32223;53.654;10.014;2023-06-22T12:44:38;3.83;;;2.28;;
46507;SDS011;32223;53.654;10.014;2023-06-22T12:47:07;3.55;;;2.60;;
46507;SDS011;32223;53.654;10.014;2023-06-22T12:49:36;3.70;;;2.80;;
46507;SDS011;32223;53.654;10.014;2023-06-22T12:52:02;4.35;;;3.00;;
46507;SDS011;32223;53.654;10.014;2023-06-22T12:54:28;5.65;;;2.90;;
46507;SDS011;32223;53.654;10.014;2023-06-22T12:56:54;7.93;;;2.97;;
46507;SDS011;32223;53.654;10.014;2023-06-22T12:59:20;4.55;;;2.80;;
46507;SDS011;32223;53.654;10.014;2023-06-22T13:01:46;5.10;;;3.47;;
46507;SDS011;32223;53.654;10.014;2023-06-22T13:04:12;4.63;;;3.17;;
46507;SDS011;32223;53.654;10.014;2023-06-22T13:06:40;5.30;;;2.67;;
46507;SDS011;32223;53.654;10.014;2023-06-22T13:09:06;3.63;;;2.63;;
46507;SDS011;32223;53.654;10.014;2023-06-22T13:11:33;3.75;;;3.17;;
46507;SDS011;32223;53.654;10.014;2023-06-22T13:13:59;5.47;;;4.03;;
46507;SDS011;32223;53.654;10.014;2023-06-22T13:16:24;4.80;;;3.30;;
46507;SDS011;32223;53.654;10.014;2023-06-22T13:18:50;6.55;;;2.92;;
46507;SDS011;32223;53.654;10.014;2023-06-22T13:21:16;4.90;;;3.25;;
46507;SDS011;32223;53.654;10.014;2023-06-22T13:23:41;6.07;;;2.83;;
46507;SDS011;32223;53.654;10.014;2023-06-22T13:26:07;4.38;;;2.83;;
46507;SDS011;32223;53.654;10.014;2023-06-22T13:28:33;5.82;;;3.63;;
46507;SDS011;32223;53.654;10.014;2023-06-22T13:30:58;4.05;;;3.33;;
46507;SDS011;32223;53.654;10.014;2023-06-22T13:33:24;5.10;;;3.20;;
46507;SDS011;32223;53.654;10.014;2023-06-22T13:35:49;6.38;;;3.28;;
46507;SDS011;32223;53.654;10.014;2023-06-22T13:38:15;7.28;;;4.07;;
46507;SDS011;32223;53.654;10.014;2023-06-22T13:40:42;4.97;;;3.42;;
46507;SDS011;32223;53.654;10.014;2023-06-22T13:43:08;4.20;;;3.35;;
46507;SDS011;32223;53.654;10.014;2023-06-22T13:45:33;3.70;;;3.15;;
46507;SDS011;32223;53.654;10.014;2023-06-22T13:47:59;4.10;;;3.22;;
46507;SDS011;32223;53.654;10.014;2023-06-22T13:50:25;3.47;;;2.85;;
46507;SDS011;32223;53.654;10.014;2023-06-22T13:52:50;3.63;;;3.10;;
46507;SDS011;32223;53.654;10.014;2023-06-22T13:55:17;5.05;;;3.72;;
46507;SDS011;32223;53.654;10.014;2023-06-22T13:57:45;9.50;;;4.60;;
46507;SDS011;32223;53.654;10.014;2023-06-22T14:00:11;4.05;;;2.95;;
46507;SDS011;32223;53.654;10.014;2023-06-22T14:02:37;4.78;;;3.63;;
46507;SDS011;32223;53.654;10.014;2023-06-22T14:05:04;4.38;;;3.25;;
46507;SDS011;32223;53.654;10.014;2023-06-22T14:07:30;5.95;;;3.35;;
46507;SDS011;32223;53.654;10.014;2023-06-22T14:09:56;3.95;;;3.03;;
46507;SDS011;32223;53.654;10.014;2023-06-22T14:12:22;4.22;;;3.13;;
46507;SDS011;32223;53.654;10.014;2023-06-22T14:14:48;4.63;;;3.10;;
46507;SDS011;32223;53.654;10.014;2023-06-22T14:17:14;4.07;;;2.70;;
46507;SDS011;32223;53.654;10.014;2023-06-22T14:19:39;9.52;;;3.08;;
46507;SDS011;32223;53.654;10.014;2023-06-22T14:22:05;5.63;;;3.22;;
46507;SDS011;32223;53.654;10.014;2023-06-22T14:24:31;5.40;;;3.95;;
46507;SDS011;32223;53.654;10.014;2023-06-22T14:26:56;5.82;;;4.07;;
46507;SDS011;32223;53.654;10.014;2023-06-22T14:29:22;5.78;;;3.58;;
46507;SDS011;32223;53.654;10.014;2023-06-22T14:31:48;7.72;;;3.17;;
46507;SDS011;32223;53.654;10.014;2023-06-22T14:34:15;5.00;;;2.67;;
46507;SDS011;32223;53.654;10.014;2023-06-22T14:36:41;6.97;;;4.07;;
46507;SDS011;32223;53.654;10.014;2023-06-22T14:39:07;3.65;;;2.70;;